sensor_id;sensor_type;location;lat;lon;timestamp;pressure;altitude;pressure_sealevel;temperature;humidity
74659;BME280;63186;51.204;6.536;2022-09-21T00:00:29;102140.56;;;6.13;95.18
74659;BME280;63186;51.204;6.536;2022-09-21T00:02:55;102151.00;;;6.16;94.92
74659;BME280;63186;51.204;6.536;2022-09-21T00:05:21;102146.63;;;6.15;94.72
74659;BME280;63186;51.204;6.536;2022-09-21T00:07:46;102149.53;;;6.08;94.80
74659;BME280;63186;51.204;6.536;2022-09-21T00:10:12;102138.84;;;6.07;95.02
74659;BME280;63186;51.204;6.536;2022-09-21T00:12:37;102145.34;;;6.06;94.81
74659;BME280;63186;51.204;6.536;2022-09-21T00:15:08;102146.69;;;6.03;95.84
74659;BME280;63186;51.204;6.536;2022-09-21T00:17:34;102146.13;;;6.01;95.69
74659;BME280;63186;51.204;6.536;2022-09-21T00:20:00;102146.69;;;6.03;95.33
74659;BME280;63186;51.204;6.536;2022-09-21T00:22:26;102152.00;;;6.10;95.47
74659;BME280;63186;51.204;6.536;2022-09-21T00:24:52;102147.72;;;6.14;95.17
74659;BME280;63186;51.204;6.536;2022-09-21T00:27:18;102154.09;;;6.19;95.80
74659;BME280;63186;51.204;6.536;2022-09-21T00:29:43;102157.47;;;6.10;95.04
74659;BME280;63186;51.204;6.536;2022-09-21T00:32:08;102155.41;;;6.17;95.24
74659;BME280;63186;51.204;6.536;2022-09-21T00:34:34;102162.84;;;6.05;93.88
74659;BME280;63186;51.204;6.536;2022-09-21T00:37:00;102170.41;;;6.14;94.69
74659;BME280;63186;51.204;6.536;2022-09-21T00:39:26;102153.41;;;5.95;94.70
74659;BME280;63186;51.204;6.536;2022-09-21T00:41:51;102167.47;;;6.04;95.02
74659;BME280;63186;51.204;6.536;2022-09-21T00:44:30;102166.41;;;6.05;95.51
74659;BME280;63186;51.204;6.536;2022-09-21T00:47:00;102160.19;;;6.10;95.79
74659;BME280;63186;51.204;6.536;2022-09-21T00:49:27;102169.63;;;6.02;94.34
74659;BME280;63186;51.204;6.536;2022-09-21T00:51:55;102162.16;;;5.97;94.63
74659;BME280;63186;51.204;6.536;2022-09-21T00:54:27;102164.81;;;5.92;95.00
74659;BME280;63186;51.204;6.536;2022-09-21T00:56:54;102158.50;;;5.92;96.00
74659;BME280;63186;51.204;6.536;2022-09-21T00:59:21;102152.88;;;5.98;96.00
74659;BME280;63186;51.204;6.536;2022-09-21T01:01:46;102160.09;;;6.05;96.40
74659;BME280;63186;51.204;6.536;2022-09-21T01:04:14;102153.72;;;5.99;96.60
74659;BME280;63186;51.204;6.536;2022-09-21T01:06:40;102157.72;;;6.08;96.33
74659;BME280;63186;51.204;6.536;2022-09-21T01:09:06;102159.94;;;6.11;96.48
74659;BME280;63186;51.204;6.536;2022-09-21T01:14:56;102158.72;;;6.19;95.85
74659;BME280;63186;51.204;6.536;2022-09-21T01:17:33;102158.28;;;6.10;95.22
74659;BME280;63186;51.204;6.536;2022-09-21T01:28:09;102165.81;;;6.03;95.82
74659;BME280;63186;51.204;6.536;2022-09-21T01:30:39;102159.28;;;6.04;95.49
74659;BME280;63186;51.204;6.536;2022-09-21T01:33:14;102153.66;;;5.94;94.71
74659;BME280;63186;51.204;6.536;2022-09-21T01:35:49;102158.53;;;5.80;94.73
74659;BME280;63186;51.204;6.536;2022-09-21T01:38:31;102151.19;;;5.81;95.59
74659;BME280;63186;51.204;6.536;2022-09-21T01:41:02;102159.25;;;5.87;95.67
74659;BME280;63186;51.204;6.536;2022-09-21T01:43:35;102161.59;;;5.95;95.28
74659;BME280;63186;51.204;6.536;2022-09-21T01:46:04;102158.97;;;5.89;95.06
74659;BME280;63186;51.204;6.536;2022-09-21T01:48:33;102156.72;;;5.86;95.32
74659;BME280;63186;51.204;6.536;2022-09-21T01:51:03;102153.97;;;5.69;95.19
74659;BME280;63186;51.204;6.536;2022-09-21T01:53:38;102151.28;;;5.57;95.40
74659;BME280;63186;51.204;6.536;2022-09-21T01:56:15;102152.59;;;5.55;95.28
74659;BME280;63186;51.204;6.536;2022-09-21T01:58:50;102149.13;;;5.59;95.32
74659;BME280;63186;51.204;6.536;2022-09-21T02:01:21;102149.41;;;5.46;95.10
74659;BME280;63186;51.204;6.536;2022-09-21T02:03:57;102155.00;;;5.39;95.54
74659;BME280;63186;51.204;6.536;2022-09-21T02:06:25;102143.53;;;5.26;95.06
74659;BME280;63186;51.204;6.536;2022-09-21T02:08:52;102153.25;;;5.33;95.83
74659;BME280;63186;51.204;6.536;2022-09-21T02:11:18;102152.59;;;5.55;95.51
74659;BME280;63186;51.204;6.536;2022-09-21T02:13:45;102153.78;;;5.47;94.53
74659;BME280;63186;51.204;6.536;2022-09-21T02:16:36;102154.81;;;5.29;95.12
74659;BME280;63186;51.204;6.536;2022-09-21T02:19:13;102157.31;;;5.19;95.63
74659;BME280;63186;51.204;6.536;2022-09-21T02:29:46;102153.25;;;5.33;96.24
74659;BME280;63186;51.204;6.536;2022-09-21T02:35:57;102148.19;;;5.13;95.55
74659;BME280;63186;51.204;6.536;2022-09-21T02:38:07;102150.22;;;5.06;96.18
74659;BME280;63186;51.204;6.536;2022-09-21T02:40:48;102144.75;;;5.06;96.98
74659;BME280;63186;51.204;6.536;2022-09-21T02:43:30;102150.22;;;5.06;96.55
74659;BME280;63186;51.204;6.536;2022-09-21T02:46:09;102156.19;;;5.03;96.55
74659;BME280;63186;51.204;6.536;2022-09-21T02:48:39;102152.38;;;5.04;96.30
74659;BME280;63186;51.204;6.536;2022-09-21T02:51:13;102152.94;;;5.18;96.77
74659;BME280;63186;51.204;6.536;2022-09-21T02:53:40;102156.50;;;5.07;96.21
74659;BME280;63186;51.204;6.536;2022-09-21T02:56:08;102154.53;;;5.02;96.82
74659;BME280;63186;51.204;6.536;2022-09-21T02:58:44;102156.50;;;5.07;97.33
74659;BME280;63186;51.204;6.536;2022-09-21T03:01:12;102147.50;;;5.06;97.63
74659;BME280;63186;51.204;6.536;2022-09-21T03:03:39;102152.25;;;5.11;97.41
74659;BME280;63186;51.204;6.536;2022-09-21T03:06:05;102157.56;;;5.17;97.15
74659;BME280;63186;51.204;6.536;2022-09-21T03:08:30;102154.25;;;5.15;97.29
74659;BME280;63186;51.204;6.536;2022-09-21T03:10:56;102152.00;;;5.12;97.48
74659;BME280;63186;51.204;6.536;2022-09-21T03:13:22;102147.25;;;5.08;97.54
74659;BME280;63186;51.204;6.536;2022-09-21T03:15:47;102151.31;;;4.94;97.24
74659;BME280;63186;51.204;6.536;2022-09-21T03:18:13;102157.03;;;4.92;97.31
74659;BME280;63186;51.204;6.536;2022-09-21T03:20:40;102150.72;;;4.92;97.52
74659;BME280;63186;51.204;6.536;2022-09-21T03:23:09;102156.56;;;4.83;96.93
74659;BME280;63186;51.204;6.536;2022-09-21T03:25:34;102152.75;;;4.96;97.61
74659;BME280;63186;51.204;6.536;2022-09-21T03:28:00;102162.72;;;4.90;96.89
74659;BME280;63186;51.204;6.536;2022-09-21T03:30:25;102154.66;;;4.96;97.26
74659;BME280;63186;51.204;6.536;2022-09-21T03:32:52;102154.28;;;4.92;97.24
74659;BME280;63186;51.204;6.536;2022-09-21T03:35:19;102154.88;;;4.82;96.29
74659;BME280;63186;51.204;6.536;2022-09-21T03:37:45;102157.38;;;4.84;96.39
74659;BME280;63186;51.204;6.536;2022-09-21T03:40:11;102166.97;;;4.75;96.51
74659;BME280;63186;51.204;6.536;2022-09-21T03:42:37;102168.88;;;4.86;96.94
74659;BME280;63186;51.204;6.536;2022-09-21T03:45:04;102155.63;;;4.78;96.81
74659;BME280;63186;51.204;6.536;2022-09-21T03:47:29;102169.38;;;4.83;97.02
74659;BME280;63186;51.204;6.536;2022-09-21T03:49:54;102162.72;;;4.79;96.44
74659;BME280;63186;51.204;6.536;2022-09-21T03:52:20;102164.03;;;4.76;96.33
74659;BME280;63186;51.204;6.536;2022-09-21T03:54:45;102170.19;;;4.72;95.89
74659;BME280;63186;51.204;6.536;2022-09-21T03:59:43;102155.00;;;4.52;95.89
74659;BME280;63186;51.204;6.536;2022-09-21T04:02:08;102165.69;;;4.54;95.98
74659;BME280;63186;51.204;6.536;2022-09-21T04:04:34;102164.28;;;4.63;96.29
74659;BME280;63186;51.204;6.536;2022-09-21T04:06:59;102168.53;;;4.71;95.96
74659;BME280;63186;51.204;6.536;2022-09-21T04:09:25;102172.22;;;4.76;95.83
74659;BME280;63186;51.204;6.536;2022-09-21T04:11:50;102167.47;;;4.72;96.51
74659;BME280;63186;51.204;6.536;2022-09-21T04:14:18;102161.41;;;4.46;94.93
74659;BME280;63186;51.204;6.536;2022-09-21T04:16:43;102166.75;;;4.53;95.45
74659;BME280;63186;51.204;6.536;2022-09-21T04:19:09;102169.59;;;4.46;94.87
74659;BME280;63186;51.204;6.536;2022-09-21T04:21:34;102177.50;;;4.36;95.52
74659;BME280;63186;51.204;6.536;2022-09-21T04:24:00;102172.06;;;4.24;95.91
74659;BME280;63186;51.204;6.536;2022-09-21T04:26:29;102176.31;;;4.20;96.64
74659;BME280;63186;51.204;6.536;2022-09-21T04:28:56;102175.94;;;4.17;96.68
74659;BME280;63186;51.204;6.536;2022-09-21T04:31:22;102180.34;;;4.18;97.18
74659;BME280;63186;51.204;6.536;2022-09-21T04:33:49;102177.41;;;4.31;97.03
74659;BME280;63186;51.204;6.536;2022-09-21T04:36:16;102179.28;;;4.42;96.83
74659;BME280;63186;51.204;6.536;2022-09-21T04:38:41;102185.47;;;4.49;96.32
74659;BME280;63186;51.204;6.536;2022-09-21T04:41:06;102182.63;;;4.32;95.70
74659;BME280;63186;51.204;6.536;2022-09-21T04:43:32;102182.34;;;4.22;95.50
74659;BME280;63186;51.204;6.536;2022-09-21T04:45:57;102183.38;;;4.09;95.66
74659;BME280;63186;51.204;6.536;2022-09-21T04:48:23;102189.91;;;4.08;96.76
74659;BME280;63186;51.204;6.536;2022-09-21T04:50:49;102190.59;;;4.04;96.90
74659;BME280;63186;51.204;6.536;2022-09-21T04:53:15;102189.41;;;4.00;96.92
74659;BME280;63186;51.204;6.536;2022-09-21T04:55:40;102200.16;;;3.95;95.96
74659;BME280;63186;51.204;6.536;2022-09-21T04:58:05;102198.50;;;3.94;96.76
74659;BME280;63186;51.204;6.536;2022-09-21T05:00:31;102200.63;;;3.92;96.97
74659;BME280;63186;51.204;6.536;2022-09-21T05:02:56;102194.13;;;3.93;97.45
74659;BME280;63186;51.204;6.536;2022-09-21T05:05:23;102188.94;;;4.03;97.18
74659;BME280;63186;51.204;6.536;2022-09-21T05:07:48;102196.75;;;3.99;97.08
74659;BME280;63186;51.204;6.536;2022-09-21T05:10:14;102191.25;;;4.18;97.05
74659;BME280;63186;51.204;6.536;2022-09-21T05:12:39;102186.38;;;4.20;97.11
74659;BME280;63186;51.204;6.536;2022-09-21T05:15:07;102190.78;;;4.32;96.75
74659;BME280;63186;51.204;6.536;2022-09-21T05:17:32;102196.91;;;4.16;95.99
74659;BME280;63186;51.204;6.536;2022-09-21T05:19:57;102200.94;;;4.14;96.49
74659;BME280;63186;51.204;6.536;2022-09-21T05:22:23;102201.38;;;4.11;96.83
74659;BME280;63186;51.204;6.536;2022-09-21T05:24:48;102206.38;;;4.14;96.71
74659;BME280;63186;51.204;6.536;2022-09-21T05:27:13;102204.00;;;4.17;97.19
74659;BME280;63186;51.204;6.536;2022-09-21T05:29:39;102206.31;;;4.32;97.28
74659;BME280;63186;51.204;6.536;2022-09-21T05:32:19;102212.63;;;4.44;96.91
74659;BME280;63186;51.204;6.536;2022-09-21T05:34:53;102209.44;;;4.59;96.80
74659;BME280;63186;51.204;6.536;2022-09-21T05:37:36;102213.97;;;4.65;96.48
74659;BME280;63186;51.204;6.536;2022-09-21T05:40:05;102220.72;;;4.74;96.36
74659;BME280;63186;51.204;6.536;2022-09-21T05:42:31;102220.72;;;4.86;96.37
74659;BME280;63186;51.204;6.536;2022-09-21T05:44:57;102218.94;;;5.03;96.30
74659;BME280;63186;51.204;6.536;2022-09-21T05:47:40;102224.75;;;5.30;95.75
74659;BME280;63186;51.204;6.536;2022-09-21T05:52:55;102229.69;;;5.97;92.66
74659;BME280;63186;51.204;6.536;2022-09-21T05:58:18;102238.34;;;7.23;91.07
74659;BME280;63186;51.204;6.536;2022-09-21T06:00:52;102242.66;;;7.80;85.33
74659;BME280;63186;51.204;6.536;2022-09-21T06:03:24;102246.69;;;8.48;85.76
74659;BME280;63186;51.204;6.536;2022-09-21T06:05:51;102239.94;;;8.98;80.49
74659;BME280;63186;51.204;6.536;2022-09-21T06:08:16;102239.25;;;9.65;80.28
74659;BME280;63186;51.204;6.536;2022-09-21T06:10:41;102237.72;;;10.15;80.08
74659;BME280;63186;51.204;6.536;2022-09-21T06:13:07;102243.88;;;10.53;78.46
74659;BME280;63186;51.204;6.536;2022-09-21T06:15:33;102250.16;;;11.14;76.50
74659;BME280;63186;51.204;6.536;2022-09-21T06:18:02;102251.47;;;11.48;75.36
74659;BME280;63186;51.204;6.536;2022-09-21T06:20:27;102259.56;;;11.99;72.87
74659;BME280;63186;51.204;6.536;2022-09-21T06:23:08;102250.22;;;12.39;70.92
74659;BME280;63186;51.204;6.536;2022-09-21T06:25:34;102262.78;;;12.60;71.44
74659;BME280;63186;51.204;6.536;2022-09-21T06:28:11;102261.00;;;12.74;67.46
74659;BME280;63186;51.204;6.536;2022-09-21T06:30:37;102259.44;;;13.26;69.62
74659;BME280;63186;51.204;6.536;2022-09-21T06:33:04;102257.72;;;12.72;68.28
74659;BME280;63186;51.204;6.536;2022-09-21T06:35:31;102256.03;;;13.58;70.03
74659;BME280;63186;51.204;6.536;2022-09-21T06:38:02;102254.91;;;13.83;67.49
74659;BME280;63186;51.204;6.536;2022-09-21T06:40:28;102257.81;;;13.92;67.11
74659;BME280;63186;51.204;6.536;2022-09-21T06:42:58;102265.06;;;13.69;67.19
74659;BME280;63186;51.204;6.536;2022-09-21T06:45:25;102266.78;;;13.07;69.98
74659;BME280;63186;51.204;6.536;2022-09-21T06:47:51;102266.66;;;13.22;70.79
74659;BME280;63186;51.204;6.536;2022-09-21T06:50:16;102260.50;;;13.30;67.55
74659;BME280;63186;51.204;6.536;2022-09-21T06:52:41;102269.06;;;13.58;68.39
74659;BME280;63186;51.204;6.536;2022-09-21T06:55:07;102272.72;;;13.96;66.29
74659;BME280;63186;51.204;6.536;2022-09-21T06:57:34;102274.22;;;14.83;63.53
74659;BME280;63186;51.204;6.536;2022-09-21T06:59:59;102277.69;;;15.67;61.50
74659;BME280;63186;51.204;6.536;2022-09-21T07:02:25;102274.28;;;15.84;60.50
74659;BME280;63186;51.204;6.536;2022-09-21T07:04:50;102277.88;;;16.12;60.11
74659;BME280;63186;51.204;6.536;2022-09-21T07:07:15;102268.53;;;15.67;59.45
74659;BME280;63186;51.204;6.536;2022-09-21T07:09:40;102271.34;;;15.20;63.67
74659;BME280;63186;51.204;6.536;2022-09-21T07:12:06;102272.44;;;15.06;62.86
74659;BME280;63186;51.204;6.536;2022-09-21T07:14:32;102266.56;;;14.61;64.50
74659;BME280;63186;51.204;6.536;2022-09-21T07:16:57;102273.16;;;14.46;64.87
74659;BME280;63186;51.204;6.536;2022-09-21T07:19:23;102266.38;;;14.15;67.17
74659;BME280;63186;51.204;6.536;2022-09-21T07:21:52;102265.34;;;14.10;66.90
74659;BME280;63186;51.204;6.536;2022-09-21T07:24:17;102269.72;;;13.93;68.65
74659;BME280;63186;51.204;6.536;2022-09-21T07:26:42;102278.09;;;13.88;69.20
74659;BME280;63186;51.204;6.536;2022-09-21T07:29:08;102273.25;;;13.74;69.43
74659;BME280;63186;51.204;6.536;2022-09-21T07:31:33;102273.34;;;13.69;69.74
74659;BME280;63186;51.204;6.536;2022-09-21T07:33:59;102269.75;;;13.45;70.79
74659;BME280;63186;51.204;6.536;2022-09-21T07:36:24;102273.81;;;13.76;70.83
74659;BME280;63186;51.204;6.536;2022-09-21T07:38:49;102274.50;;;13.87;69.53
74659;BME280;63186;51.204;6.536;2022-09-21T07:41:15;102269.59;;;14.03;69.53
74659;BME280;63186;51.204;6.536;2022-09-21T07:43:40;102271.47;;;14.83;66.97
74659;BME280;63186;51.204;6.536;2022-09-21T07:46:08;102272.09;;;15.40;64.66
74659;BME280;63186;51.204;6.536;2022-09-21T07:48:34;102262.97;;;15.53;63.94
74659;BME280;63186;51.204;6.536;2022-09-21T07:51:04;102263.91;;;15.62;62.42
74659;BME280;63186;51.204;6.536;2022-09-21T07:53:32;102274.13;;;16.89;59.21
74659;BME280;63186;51.204;6.536;2022-09-21T07:56:08;102272.03;;;17.66;56.81
74659;BME280;63186;51.204;6.536;2022-09-21T07:58:35;102263.69;;;18.49;54.34
74659;BME280;63186;51.204;6.536;2022-09-21T08:01:19;102271.22;;;18.57;51.94
74659;BME280;63186;51.204;6.536;2022-09-21T08:03:50;102276.97;;;18.95;51.63
74659;BME280;63186;51.204;6.536;2022-09-21T08:06:17;102275.97;;;19.00;51.94
74659;BME280;63186;51.204;6.536;2022-09-21T08:08:42;102279.91;;;19.54;51.05
74659;BME280;63186;51.204;6.536;2022-09-21T08:11:08;102271.03;;;19.61;50.38
74659;BME280;63186;51.204;6.536;2022-09-21T08:13:33;102272.72;;;18.97;52.09
74659;BME280;63186;51.204;6.536;2022-09-21T08:16:02;102283.69;;;19.11;51.42
74659;BME280;63186;51.204;6.536;2022-09-21T08:18:28;102273.22;;;18.74;53.30
74659;BME280;63186;51.204;6.536;2022-09-21T08:20:54;102269.41;;;19.51;51.78
74659;BME280;63186;51.204;6.536;2022-09-21T08:23:20;102277.72;;;19.68;49.16
74659;BME280;63186;51.204;6.536;2022-09-21T08:25:45;102276.84;;;19.38;49.00
74659;BME280;63186;51.204;6.536;2022-09-21T08:28:10;102279.66;;;19.30;49.94
74659;BME280;63186;51.204;6.536;2022-09-21T08:30:36;102272.91;;;18.66;52.24
74659;BME280;63186;51.204;6.536;2022-09-21T08:33:01;102272.47;;;17.99;54.66
74659;BME280;63186;51.204;6.536;2022-09-21T08:35:27;102282.22;;;17.30;56.89
74659;BME280;63186;51.204;6.536;2022-09-21T08:37:53;102288.00;;;17.43;56.19
74659;BME280;63186;51.204;6.536;2022-09-21T08:40:18;102290.59;;;17.39;57.19
74659;BME280;63186;51.204;6.536;2022-09-21T08:42:55;102293.59;;;17.51;56.30
74659;BME280;63186;51.204;6.536;2022-09-21T08:45:24;102288.28;;;18.21;54.99
74659;BME280;63186;51.204;6.536;2022-09-21T08:47:56;102285.84;;;18.54;53.03
74659;BME280;63186;51.204;6.536;2022-09-21T08:50:39;102281.84;;;18.03;54.78
74659;BME280;63186;51.204;6.536;2022-09-21T08:53:19;102287.41;;;16.56;59.04
74659;BME280;63186;51.204;6.536;2022-09-21T08:55:45;102282.09;;;16.46;60.44
74659;BME280;63186;51.204;6.536;2022-09-21T08:58:20;102283.88;;;16.28;60.22
74659;BME280;63186;51.204;6.536;2022-09-21T09:00:48;102287.28;;;17.28;59.62
74659;BME280;63186;51.204;6.536;2022-09-21T09:06:04;102288.97;;;19.51;51.38
74659;BME280;63186;51.204;6.536;2022-09-21T09:11:42;102293.25;;;20.79;48.85
74659;BME280;63186;51.204;6.536;2022-09-21T09:14:21;102289.09;;;20.85;47.08
74659;BME280;63186;51.204;6.536;2022-09-21T09:17:18;102286.03;;;21.11;45.78
74659;BME280;63186;51.204;6.536;2022-09-21T09:19:54;102295.63;;;20.56;46.89
74659;BME280;63186;51.204;6.536;2022-09-21T09:22:29;102288.06;;;19.76;49.03
74659;BME280;63186;51.204;6.536;2022-09-21T09:25:02;102298.63;;;21.62;44.80
74659;BME280;63186;51.204;6.536;2022-09-21T09:27:34;102295.94;;;21.90;44.07
74659;BME280;63186;51.204;6.536;2022-09-21T09:30:08;102292.22;;;21.99;43.22
74659;BME280;63186;51.204;6.536;2022-09-21T09:32:48;102289.53;;;22.55;42.49
74659;BME280;63186;51.204;6.536;2022-09-21T09:35:36;102294.41;;;22.70;41.13
74659;BME280;63186;51.204;6.536;2022-09-21T09:38:09;102290.69;;;22.26;41.96
74659;BME280;63186;51.204;6.536;2022-09-21T09:43:20;102283.19;;;22.70;41.34
74659;BME280;63186;51.204;6.536;2022-09-21T09:46:00;102291.50;;;22.94;41.36
74659;BME280;63186;51.204;6.536;2022-09-21T09:50:58;102287.16;;;22.69;42.67
74659;BME280;63186;51.204;6.536;2022-09-21T09:53:25;102284.97;;;21.85;44.97
74659;BME280;63186;51.204;6.536;2022-09-21T09:55:52;102285.19;;;21.56;44.55
74659;BME280;63186;51.204;6.536;2022-09-21T09:59:01;102284.47;;;22.32;43.42
74659;BME280;63186;51.204;6.536;2022-09-21T10:01:07;102282.75;;;22.56;41.93
74659;BME280;63186;51.204;6.536;2022-09-21T10:03:32;102283.69;;;21.83;46.46
74659;BME280;63186;51.204;6.536;2022-09-21T10:05:57;102284.91;;;22.46;41.96
74659;BME280;63186;51.204;6.536;2022-09-21T10:10:54;102289.94;;;21.31;46.07
74659;BME280;63186;51.204;6.536;2022-09-21T10:15:58;102283.16;;;21.20;40.93
74659;BME280;63186;51.204;6.536;2022-09-21T10:18:28;102279.72;;;21.72;41.00
74659;BME280;63186;51.204;6.536;2022-09-21T10:21:05;102280.06;;;22.19;41.40
74659;BME280;63186;51.204;6.536;2022-09-21T10:23:31;102273.66;;;22.87;39.49
74659;BME280;63186;51.204;6.536;2022-09-21T10:28:28;102274.28;;;22.68;37.73
74659;BME280;63186;51.204;6.536;2022-09-21T10:31:09;102286.00;;;22.98;36.30
74659;BME280;63186;51.204;6.536;2022-09-21T10:33:45;102285.03;;;22.38;38.57
74659;BME280;63186;51.204;6.536;2022-09-21T10:36:32;102274.66;;;22.94;38.66
74659;BME280;63186;51.204;6.536;2022-09-21T10:39:26;102279.47;;;22.01;42.42
74659;BME280;63186;51.204;6.536;2022-09-21T10:41:53;102272.84;;;22.86;39.32
74659;BME280;63186;51.204;6.536;2022-09-21T10:44:22;102269.00;;;23.38;36.49
74659;BME280;63186;51.204;6.536;2022-09-21T10:46:50;102271.50;;;22.03;40.91
74659;BME280;63186;51.204;6.536;2022-09-21T10:49:26;102277.41;;;22.51;38.65
74659;BME280;63186;51.204;6.536;2022-09-21T10:51:56;102259.38;;;22.24;39.46
74659;BME280;63186;51.204;6.536;2022-09-21T10:54:27;102263.56;;;23.14;38.36
74659;BME280;63186;51.204;6.536;2022-09-21T10:57:05;102260.59;;;21.16;40.36
74659;BME280;63186;51.204;6.536;2022-09-21T10:59:33;102266.06;;;21.12;43.40
74659;BME280;63186;51.204;6.536;2022-09-21T11:02:01;102270.00;;;21.45;41.59
74659;BME280;63186;51.204;6.536;2022-09-21T11:04:31;102264.03;;;22.19;39.55
74659;BME280;63186;51.204;6.536;2022-09-21T11:12:38;102250.13;;;22.23;38.70
74659;BME280;63186;51.204;6.536;2022-09-21T11:15:19;102258.16;;;22.65;37.18
74659;BME280;63186;51.204;6.536;2022-09-21T11:17:52;102259.41;;;21.62;41.73
74659;BME280;63186;51.204;6.536;2022-09-21T11:20:29;102248.56;;;20.70;42.92
74659;BME280;63186;51.204;6.536;2022-09-21T11:26:26;102257.09;;;20.32;42.11
74659;BME280;63186;51.204;6.536;2022-09-21T11:29:02;102247.91;;;19.81;43.68
74659;BME280;63186;51.204;6.536;2022-09-21T11:31:43;102249.41;;;19.40;47.07
74659;BME280;63186;51.204;6.536;2022-09-21T11:40:53;102231.88;;;18.67;48.41
74659;BME280;63186;51.204;6.536;2022-09-21T11:43:38;102228.91;;;17.94;47.07
74659;BME280;63186;51.204;6.536;2022-09-21T11:57:49;102220.00;;;17.75;47.07
74659;BME280;63186;51.204;6.536;2022-09-21T12:00:20;102211.38;;;18.02;46.26
74659;BME280;63186;51.204;6.536;2022-09-21T12:03:26;102214.97;;;18.03;46.81
74659;BME280;63186;51.204;6.536;2022-09-21T12:06:04;102211.84;;;17.87;46.18
74659;BME280;63186;51.204;6.536;2022-09-21T12:11:33;102205.69;;;17.59;48.36
74659;BME280;63186;51.204;6.536;2022-09-21T12:16:48;102197.66;;;17.57;44.81
74659;BME280;63186;51.204;6.536;2022-09-21T12:22:12;102204.78;;;17.81;47.91
74659;BME280;63186;51.204;6.536;2022-09-21T12:24:53;102189.28;;;17.49;46.70
74659;BME280;63186;51.204;6.536;2022-09-21T12:27:30;102196.97;;;17.52;48.34
74659;BME280;63186;51.204;6.536;2022-09-21T12:30:03;102193.56;;;17.55;44.97
74659;BME280;63186;51.204;6.536;2022-09-21T12:35:27;102186.59;;;17.75;46.59
74659;BME280;63186;51.204;6.536;2022-09-21T12:38:11;102187.66;;;17.48;45.37
74659;BME280;63186;51.204;6.536;2022-09-21T12:40:44;102182.00;;;17.22;46.71
74659;BME280;63186;51.204;6.536;2022-09-21T12:43:40;102187.38;;;17.27;47.17
74659;BME280;63186;51.204;6.536;2022-09-21T12:48:49;102172.84;;;17.30;46.75
74659;BME280;63186;51.204;6.536;2022-09-21T12:51:23;102175.38;;;17.09;49.76
74659;BME280;63186;51.204;6.536;2022-09-21T12:53:52;102186.56;;;17.18;46.88
74659;BME280;63186;51.204;6.536;2022-09-21T12:56:29;102181.81;;;17.27;43.78
74659;BME280;63186;51.204;6.536;2022-09-21T13:07:27;102162.53;;;17.30;44.14
74659;BME280;63186;51.204;6.536;2022-09-21T13:09:58;102158.03;;;17.60;45.49
74659;BME280;63186;51.204;6.536;2022-09-21T13:12:29;102161.72;;;17.30;45.11
74659;BME280;63186;51.204;6.536;2022-09-21T13:15:04;102161.38;;;17.31;47.53
74659;BME280;63186;51.204;6.536;2022-09-21T13:17:37;102151.34;;;17.13;43.43
74659;BME280;63186;51.204;6.536;2022-09-21T13:20:15;102159.88;;;17.25;43.20
74659;BME280;63186;51.204;6.536;2022-09-21T13:22:43;102150.22;;;17.23;48.24
74659;BME280;63186;51.204;6.536;2022-09-21T13:43:46;102131.09;;;17.30;46.34
74659;BME280;63186;51.204;6.536;2022-09-21T13:53:05;102133.31;;;17.11;44.85
74659;BME280;63186;51.204;6.536;2022-09-21T13:55:30;102127.63;;;17.24;42.91
74659;BME280;63186;51.204;6.536;2022-09-21T13:58:02;102129.28;;;17.25;42.27
74659;BME280;63186;51.204;6.536;2022-09-21T14:00:49;102124.53;;;17.26;44.34
74659;BME280;63186;51.204;6.536;2022-09-21T14:03:32;102117.81;;;17.27;44.14
74659;BME280;63186;51.204;6.536;2022-09-21T14:06:05;102117.59;;;17.15;42.24
74659;BME280;63186;51.204;6.536;2022-09-21T14:08:35;102117.66;;;17.23;46.92
74659;BME280;63186;51.204;6.536;2022-09-21T14:11:05;102119.28;;;17.16;44.43
74659;BME280;63186;51.204;6.536;2022-09-21T14:13:46;102113.50;;;17.03;45.21
74659;BME280;63186;51.204;6.536;2022-09-21T14:27:18;102099.47;;;17.26;42.52
74659;BME280;63186;51.204;6.536;2022-09-21T14:30:00;102097.16;;;17.11;45.49
74659;BME280;63186;51.204;6.536;2022-09-21T14:32:30;102102.22;;;17.08;47.23
74659;BME280;63186;51.204;6.536;2022-09-21T14:35:05;102103.34;;;17.07;45.39
74659;BME280;63186;51.204;6.536;2022-09-21T14:37:41;102103.66;;;16.97;43.71
74659;BME280;63186;51.204;6.536;2022-09-21T14:40:29;102100.81;;;16.89;50.54
74659;BME280;63186;51.204;6.536;2022-09-21T14:42:58;102093.94;;;16.86;44.08
74659;BME280;63186;51.204;6.536;2022-09-21T14:45:50;102088.59;;;16.90;47.24
74659;BME280;63186;51.204;6.536;2022-09-21T14:48:28;102091.38;;;16.90;46.52
74659;BME280;63186;51.204;6.536;2022-09-21T14:54:14;102082.69;;;16.91;48.97
74659;BME280;63186;51.204;6.536;2022-09-21T15:00:05;102076.78;;;16.84;43.94
74659;BME280;63186;51.204;6.536;2022-09-21T15:02:39;102075.78;;;16.89;44.71
74659;BME280;63186;51.204;6.536;2022-09-21T15:05:25;102075.31;;;16.87;47.93
74659;BME280;63186;51.204;6.536;2022-09-21T15:11:14;102072.72;;;16.90;44.62
74659;BME280;63186;51.204;6.536;2022-09-21T15:14:16;102066.13;;;16.86;47.15
74659;BME280;63186;51.204;6.536;2022-09-21T15:16:48;102077.47;;;16.90;47.95
74659;BME280;63186;51.204;6.536;2022-09-21T15:21:53;102062.75;;;16.67;46.67
74659;BME280;63186;51.204;6.536;2022-09-21T15:24:28;102066.13;;;16.55;47.97
74659;BME280;63186;51.204;6.536;2022-09-21T15:27:07;102067.88;;;16.42;48.33
74659;BME280;63186;51.204;6.536;2022-09-21T15:29:35;102069.69;;;16.47;49.16
74659;BME280;63186;51.204;6.536;2022-09-21T15:32:02;102066.22;;;16.41;52.32
74659;BME280;63186;51.204;6.536;2022-09-21T15:34:28;102057.16;;;16.27;51.41
74659;BME280;63186;51.204;6.536;2022-09-21T15:37:04;102061.78;;;16.09;50.56
74659;BME280;63186;51.204;6.536;2022-09-21T15:39:31;102064.03;;;15.98;51.38